createdAt,value
2019-03-04T00:13:21.968Z,1.33
2019-03-04T00:15:52.740Z,1.27
2019-03-04T00:18:23.628Z,1.30
2019-03-04T00:21:13.885Z,1.10
2019-03-04T00:24:03.884Z,1.13
2019-03-04T00:29:48.449Z,1.30
2019-03-04T00:32:38.182Z,1.30
2019-03-04T00:35:20.972Z,1.17
2019-03-04T00:38:10.778Z,1.27
2019-03-04T00:40:53.852Z,1.23
2019-03-04T00:43:43.558Z,1.40
2019-03-04T00:46:25.662Z,1.57
2019-03-04T00:49:15.492Z,1.40
2019-03-04T00:51:58.172Z,1.00
2019-03-04T00:54:48.065Z,1.30
2019-03-04T00:57:38.357Z,1.03
2019-03-04T01:00:28.662Z,1.23
2019-03-04T01:03:18.452Z,1.10
2019-03-04T01:06:03.388Z,1.30
2019-03-04T01:12:17.249Z,1.40
2019-03-04T01:15:00.227Z,1.10
2019-03-04T01:17:50.092Z,1.00
2019-03-04T01:20:59.040Z,1.00
2019-03-04T01:23:48.730Z,0.80
2019-03-04T01:26:31.178Z,1.00
2019-03-04T01:29:20.982Z,0.90
2019-03-04T01:32:10.745Z,1.00
2019-03-04T01:35:00.547Z,1.10
2019-03-04T01:37:50.265Z,1.17
2019-03-04T01:40:33.168Z,0.97
2019-03-04T01:43:22.952Z,0.97
2019-03-04T01:46:12.710Z,1.20
2019-03-04T01:49:02.411Z,1.17
2019-03-04T01:51:44.890Z,0.93
2019-03-04T01:54:34.798Z,0.90
2019-03-04T01:57:24.593Z,1.23
2019-03-04T02:00:18.552Z,1.00
2019-03-04T02:03:08.542Z,1.27
2019-03-04T02:05:58.349Z,1.07
2019-03-04T02:08:48.179Z,1.20
2019-03-04T02:11:38.003Z,0.97
2019-03-04T02:14:27.772Z,0.90
2019-03-04T02:17:10.263Z,1.00
2019-03-04T02:20:00.011Z,1.10
2019-03-04T02:28:12.837Z,1.20
2019-03-04T02:31:02.916Z,1.30
2019-03-04T02:33:52.862Z,1.20
2019-03-04T02:36:42.584Z,0.90
2019-03-04T02:39:32.317Z,0.80
2019-03-04T02:42:22.133Z,1.03
2019-03-04T02:45:13.991Z,1.17
2019-03-04T02:47:56.491Z,0.90
2019-03-04T02:50:46.260Z,1.07
2019-03-04T02:53:36.903Z,0.83
2019-03-04T02:56:26.736Z,1.30
2019-03-04T02:59:16.504Z,1.10
2019-03-04T03:05:02.795Z,1.20
2019-03-04T03:08:05.085Z,1.40
2019-03-04T03:10:47.524Z,1.10
2019-03-04T03:13:56.351Z,1.00
2019-03-04T03:16:46.048Z,1.03
2019-03-04T03:19:28.554Z,1.30
2019-03-04T03:22:18.393Z,0.97
2019-03-04T03:25:20.903Z,0.80
2019-03-04T03:28:03.496Z,1.03
2019-03-04T03:33:56.857Z,1.83
2019-03-04T03:36:39.380Z,1.37
2019-03-04T03:39:29.409Z,1.80
2019-03-04T03:42:19.669Z,1.30
2019-03-04T03:45:28.546Z,1.30
2019-03-04T03:48:11.077Z,1.50
2019-03-04T03:51:19.913Z,1.00
2019-03-04T03:57:13.526Z,1.30
2019-03-04T03:59:55.744Z,1.10
2019-03-04T04:02:45.881Z,1.10
2019-03-04T04:05:35.621Z,1.10
2019-03-04T04:08:25.371Z,1.37
2019-03-04T04:11:07.850Z,1.07
2019-03-04T04:13:57.871Z,1.33
2019-03-04T04:16:47.701Z,1.40
2019-03-04T04:19:37.487Z,1.30
2019-03-04T04:22:27.267Z,1.43
2019-03-04T04:25:17.420Z,1.33
2019-03-04T04:27:59.565Z,1.33
2019-03-04T04:30:49.246Z,0.97
2019-03-04T04:33:33.974Z,1.07
2019-03-04T04:39:10.271Z,1.40
2019-03-04T04:42:00.130Z,1.10
2019-03-04T04:44:44.067Z,1.20
2019-03-04T04:47:52.952Z,1.20
2019-03-04T04:50:35.240Z,1.10
2019-03-04T04:53:25.022Z,1.23
2019-03-04T04:56:07.172Z,1.33
2019-03-04T04:58:56.906Z,1.03
2019-03-04T05:01:39.572Z,1.13
2019-03-04T05:04:29.310Z,1.10
2019-03-04T05:07:13.350Z,1.00
2019-03-04T05:10:03.539Z,1.17
2019-03-04T05:12:45.491Z,1.20
2019-03-04T05:15:35.260Z,1.37
2019-03-04T05:18:25.027Z,1.20
2019-03-04T05:21:14.859Z,1.13
2019-03-04T05:24:04.644Z,1.40
2019-03-04T05:26:54.445Z,1.90
2019-03-04T05:29:46.005Z,1.73
2019-03-04T05:32:28.411Z,1.87
2019-03-04T05:35:18.221Z,2.10
2019-03-04T05:38:07.979Z,2.00
2019-03-04T05:40:57.774Z,1.43
2019-03-04T05:44:00.229Z,1.10
2019-03-04T05:46:42.248Z,1.50
2019-03-04T05:49:32.003Z,1.03
2019-03-04T05:52:14.739Z,1.20
2019-03-04T05:55:04.555Z,1.20
2019-03-04T05:57:54.333Z,1.00
2019-03-04T06:03:56.161Z,1.40
2019-03-04T06:07:03.894Z,1.30
2019-03-04T06:09:53.661Z,2.23
2019-03-04T06:12:43.489Z,3.20
2019-03-04T06:18:27.801Z,2.70
2019-03-04T06:21:17.588Z,1.30
2019-03-04T06:24:07.321Z,1.40
2019-03-04T06:27:16.244Z,1.33
2019-03-04T06:29:58.885Z,1.60
2019-03-04T06:32:48.845Z,1.10
2019-03-04T06:35:38.677Z,1.10
2019-03-04T06:38:28.437Z,1.17
2019-03-04T06:41:12.116Z,1.20
2019-03-04T06:44:01.912Z,1.23
2019-03-04T06:46:51.737Z,1.33
2019-03-04T06:49:24.213Z,1.50
2019-03-04T06:52:06.635Z,1.93
2019-03-04T06:55:19.170Z,1.10
2019-03-04T06:58:01.476Z,1.00
2019-03-04T07:00:59.187Z,1.20
2019-03-04T07:03:52.667Z,1.23
2019-03-04T07:06:42.397Z,1.33
2019-03-04T07:09:25.280Z,0.87
2019-03-04T07:12:14.977Z,1.20
2019-03-04T07:14:59.483Z,1.27
2019-03-04T07:17:49.491Z,1.10
2019-03-04T07:20:33.241Z,1.00
2019-03-04T07:23:22.321Z,1.20
2019-03-04T07:26:04.038Z,1.33
2019-03-04T07:28:46.394Z,1.07
2019-03-04T07:34:33.761Z,1.20
2019-03-04T07:37:23.692Z,1.20
2019-03-04T07:40:07.755Z,1.00
2019-03-04T07:42:57.489Z,1.57
2019-03-04T07:45:39.815Z,1.47
2019-03-04T07:48:48.608Z,1.83
2019-03-04T07:51:30.711Z,1.47
2019-03-04T07:54:39.499Z,1.70
2019-03-04T07:57:29.207Z,1.23
2019-03-04T08:00:11.918Z,1.67
2019-03-04T08:03:02.098Z,1.40
2019-03-04T08:05:51.886Z,1.53
2019-03-04T08:12:16.997Z,1.80
2019-03-04T08:15:08.760Z,1.50
2019-03-04T08:17:58.558Z,1.50
2019-03-04T08:20:48.434Z,1.30
2019-03-04T08:23:38.441Z,1.60
2019-03-04T08:26:28.183Z,1.50
2019-03-04T08:29:17.920Z,1.50
2019-03-04T08:32:07.642Z,1.40
2019-03-04T08:35:16.442Z,1.60
2019-03-04T08:37:58.678Z,1.53
2019-03-04T08:40:48.416Z,1.27
2019-03-04T08:43:31.398Z,1.80
2019-03-04T08:46:21.150Z,1.60
2019-03-04T08:49:03.864Z,1.57
2019-03-04T08:51:53.634Z,1.30
2019-03-04T08:54:36.452Z,1.40
2019-03-04T09:00:26.831Z,2.17
2019-03-04T09:03:16.618Z,1.90
2019-03-04T09:06:25.643Z,1.90
2019-03-04T09:09:15.426Z,1.97
2019-03-04T09:12:05.178Z,1.53
2019-03-04T09:14:54.896Z,0.90
2019-03-04T09:17:44.658Z,1.30
2019-03-04T09:20:27.233Z,1.00
2019-03-04T09:23:16.956Z,1.00
2019-03-04T09:26:01.664Z,1.17
2019-03-04T09:28:51.444Z,0.87
2019-03-04T09:31:34.028Z,1.00
2019-03-04T09:34:23.947Z,0.77
2019-03-04T09:37:06.135Z,0.77
2019-03-04T09:42:56.903Z,0.50
2019-03-04T09:45:46.646Z,0.60
2019-03-04T09:48:29.158Z,0.53
2019-03-04T09:51:24.440Z,0.30
2019-03-04T09:54:03.560Z,0.90
2019-03-04T09:56:53.656Z,0.60
2019-03-04T09:59:36.373Z,0.43
2019-03-04T10:02:47.782Z,0.40
2019-03-04T10:05:33.575Z,0.40
2019-03-04T10:08:39.045Z,0.40
2019-03-04T10:11:41.037Z,0.60
2019-03-04T10:15:09.175Z,0.40
2019-03-04T10:17:54.979Z,0.50
2019-03-04T10:21:22.786Z,0.43
2019-03-04T10:24:24.396Z,0.20
2019-03-04T10:27:52.215Z,0.47
2019-03-04T10:30:48.611Z,0.57
2019-03-04T10:34:16.441Z,0.40
2019-03-04T10:37:10.089Z,0.40
2019-03-04T10:40:38.014Z,0.30
2019-03-04T10:43:39.471Z,0.53
2019-03-04T10:47:07.365Z,0.20
2019-03-04T10:49:49.456Z,0.20
2019-03-04T10:52:39.203Z,0.50
2019-03-04T10:55:21.262Z,0.20
2019-03-04T10:58:11.005Z,0.73
2019-03-04T11:00:53.494Z,0.60
2019-03-04T11:03:43.254Z,0.20
2019-03-04T11:06:26.072Z,0.50
2019-03-04T11:09:15.826Z,0.53
2019-03-04T11:11:58.480Z,0.53
2019-03-04T11:14:48.411Z,0.60
2019-03-04T11:17:30.373Z,0.50
2019-03-04T11:20:20.138Z,0.37
2019-03-04T11:23:10.068Z,0.30
2019-03-04T11:25:53.430Z,0.30
2019-03-04T11:28:43.284Z,0.87
2019-03-04T11:37:35.093Z,0.53
2019-03-04T11:40:44.701Z,0.40
2019-03-04T11:43:34.783Z,0.77
2019-03-04T11:46:26.058Z,0.70
2019-03-04T11:49:16.047Z,0.37
2019-03-04T11:52:05.900Z,0.40
2019-03-04T11:54:55.681Z,0.80
2019-03-04T11:57:45.510Z,0.60
2019-03-04T12:00:54.159Z,0.50
2019-03-04T12:07:06.673Z,0.60
2019-03-04T12:09:50.809Z,0.63
2019-03-04T12:12:40.541Z,0.37
2019-03-04T12:15:30.228Z,0.60
2019-03-04T12:18:19.936Z,0.87
2019-03-04T12:21:02.230Z,0.90
2019-03-04T12:23:52.231Z,0.70
2019-03-04T12:26:34.924Z,0.70
2019-03-04T12:29:24.833Z,0.90
2019-03-04T12:35:17.225Z,0.80
2019-03-04T12:37:59.741Z,0.83
2019-03-04T12:40:49.674Z,0.80
2019-03-04T12:43:39.520Z,0.97
2019-03-04T12:46:29.338Z,1.10
2019-03-04T12:49:19.044Z,0.80
2019-03-04T12:52:08.761Z,0.60
2019-03-04T12:54:58.549Z,0.50
2019-03-04T12:57:41.194Z,0.40
2019-03-04T13:00:30.977Z,0.60
2019-03-04T13:03:17.827Z,0.53
2019-03-04T13:06:07.570Z,0.43
2019-03-04T13:08:49.852Z,0.57
2019-03-04T13:11:39.839Z,0.53
2019-03-04T13:14:22.142Z,0.47
2019-03-04T13:17:11.898Z,0.67
2019-03-04T13:19:54.324Z,0.47
2019-03-04T13:22:44.091Z,0.60
2019-03-04T13:25:26.647Z,0.40
2019-03-04T13:28:16.692Z,0.50
2019-03-04T13:30:58.664Z,0.50
2019-03-04T13:36:43.922Z,0.40
2019-03-04T13:39:26.097Z,0.47
2019-03-04T13:42:16.074Z,0.53
2019-03-04T13:44:58.921Z,0.70
2019-03-04T13:47:48.979Z,0.57
2019-03-04T13:50:38.985Z,0.73
2019-03-04T13:53:28.789Z,0.60
2019-03-04T13:56:18.545Z,1.10
2019-03-04T13:59:08.373Z,1.00
2019-03-04T14:01:58.377Z,0.80
2019-03-04T14:04:48.126Z,0.67
2019-03-04T14:07:30.931Z,0.90
2019-03-04T14:10:20.975Z,1.00
2019-03-04T14:13:10.789Z,1.20
2019-03-04T14:16:00.549Z,1.03
2019-03-04T14:19:09.455Z,1.17
2019-03-04T14:21:52.204Z,1.20
2019-03-04T14:24:41.955Z,1.00
2019-03-04T14:27:24.837Z,0.80
2019-03-04T14:30:17.070Z,0.80
2019-03-04T14:33:00.231Z,0.97
2019-03-04T14:35:49.977Z,0.80
2019-03-04T14:38:32.555Z,0.90
2019-03-04T14:41:22.495Z,1.00
2019-03-04T14:47:15.949Z,1.37
2019-03-04T14:50:09.258Z,1.20
2019-03-04T14:52:49.900Z,0.60
2019-03-04T14:55:39.865Z,1.10
2019-03-04T15:01:26.023Z,1.00
2019-03-04T15:04:15.879Z,1.10
2019-03-04T15:06:58.687Z,1.20
2019-03-04T15:09:49.133Z,0.67
2019-03-04T15:12:33.201Z,0.93
2019-03-04T15:15:23.079Z,1.00
2019-03-04T15:18:12.872Z,0.80
2019-03-04T15:21:02.650Z,1.10
2019-03-04T15:23:44.701Z,1.20
2019-03-04T15:26:43.637Z,1.60
2019-03-04T15:29:20.720Z,0.90
2019-03-04T15:32:03.300Z,0.93
2019-03-04T15:34:53.235Z,1.13
2019-03-04T15:37:35.278Z,1.07
2019-03-04T15:40:26.768Z,0.93
2019-03-04T15:43:09.407Z,0.83
2019-03-04T15:45:59.401Z,1.00
2019-03-04T15:48:42.178Z,0.60
2019-03-04T15:51:31.978Z,0.47
2019-03-04T15:54:14.799Z,0.40
2019-03-04T16:00:08.375Z,0.90
2019-03-04T16:03:00.332Z,0.40
2019-03-04T16:05:42.722Z,0.80
2019-03-04T16:08:33.120Z,0.50
2019-03-04T16:11:23.045Z,0.33
2019-03-04T16:14:12.966Z,0.70
2019-03-04T16:17:03.000Z,0.70
2019-03-04T16:19:52.897Z,0.50
2019-03-04T16:22:42.660Z,0.77
2019-03-04T16:25:25.442Z,0.47
2019-03-04T16:28:35.667Z,0.50
2019-03-04T16:31:17.951Z,0.57
2019-03-04T16:34:08.028Z,0.53
2019-03-04T16:36:57.896Z,0.57
2019-03-04T16:39:40.922Z,0.90
2019-03-04T16:42:30.714Z,0.20
2019-03-04T16:45:20.555Z,0.27
2019-03-04T16:48:10.366Z,0.40
2019-03-04T16:51:00.310Z,0.57
2019-03-04T16:53:50.290Z,0.70
2019-03-04T16:56:40.072Z,0.57
2019-03-04T16:59:29.789Z,0.90
2019-03-04T17:02:19.527Z,1.13
2019-03-04T17:05:01.577Z,0.50
2019-03-04T17:07:51.790Z,0.63
2019-03-04T17:10:41.849Z,0.80
2019-03-04T17:16:36.371Z,0.80
2019-03-04T17:19:19.794Z,0.63
2019-03-04T17:22:09.573Z,0.60
2019-03-04T17:24:52.126Z,0.50
2019-03-04T17:30:36.662Z,1.23
2019-03-04T17:33:26.444Z,0.63
2019-03-04T17:36:16.228Z,0.63
2019-03-04T17:39:19.272Z,1.17
2019-03-04T17:42:01.616Z,0.97
2019-03-04T17:44:51.487Z,0.70
2019-03-04T17:47:33.835Z,0.93
2019-03-04T17:50:42.848Z,0.97
2019-03-04T17:53:25.504Z,0.93
2019-03-04T17:56:15.439Z,1.13
2019-03-04T17:58:57.767Z,0.60
2019-03-04T18:01:47.517Z,1.10
2019-03-04T18:04:37.239Z,0.77
2019-03-04T18:07:20.605Z,0.60
2019-03-04T18:10:12.681Z,0.80
2019-03-04T18:13:03.713Z,0.77
2019-03-04T18:15:53.590Z,1.00
2019-03-04T18:18:36.613Z,1.07
2019-03-04T18:21:26.464Z,0.80
2019-03-04T18:24:09.076Z,1.00
2019-03-04T18:30:22.502Z,0.60
2019-03-04T18:33:50.352Z,0.80
2019-03-04T18:40:39.283Z,0.50
2019-03-04T18:43:25.987Z,0.90
2019-03-04T18:46:28.043Z,0.73
2019-03-04T18:49:12.739Z,1.20
2019-03-04T18:52:02.705Z,1.27
2019-03-04T18:54:44.683Z,0.63
2019-03-04T18:57:27.210Z,0.77
2019-03-04T19:00:11.786Z,0.37
2019-03-04T19:03:01.616Z,0.77
2019-03-04T19:05:51.593Z,0.70
2019-03-04T19:08:34.567Z,0.67
2019-03-04T19:11:37.865Z,0.80
2019-03-04T19:14:08.153Z,0.90
2019-03-04T19:16:58.071Z,1.03
2019-03-04T19:22:45.083Z,1.20
2019-03-04T19:25:27.942Z,0.63
2019-03-04T19:28:17.818Z,0.87
2019-03-04T19:31:07.589Z,1.07
2019-03-04T19:33:57.395Z,1.10
2019-03-04T19:36:47.175Z,1.13
2019-03-04T19:39:37.104Z,1.23
2019-03-04T19:42:27.172Z,1.03
2019-03-04T19:45:17.203Z,0.80
2019-03-04T19:48:07.034Z,0.60
2019-03-04T19:50:56.952Z,1.10
2019-03-04T19:53:46.932Z,1.50
2019-03-04T19:56:36.741Z,1.00
2019-03-04T19:59:26.566Z,1.27
2019-03-04T20:05:31.184Z,0.87
2019-03-04T20:08:20.988Z,0.90
2019-03-04T20:11:10.836Z,0.93
2019-03-04T20:14:19.834Z,0.63
2019-03-04T20:17:03.986Z,0.90
2019-03-04T20:19:54.068Z,0.90
2019-03-04T20:22:36.435Z,0.97
2019-03-04T20:25:26.214Z,1.30
2019-03-04T20:28:08.128Z,0.90
2019-03-04T20:30:57.892Z,0.87
2019-03-04T20:33:40.402Z,0.80
2019-03-04T20:36:30.166Z,1.23
2019-03-04T20:39:15.072Z,0.97
2019-03-04T20:42:04.856Z,1.00
2019-03-04T20:44:48.376Z,1.07
2019-03-04T20:50:40.449Z,0.70
2019-03-04T20:56:31.580Z,0.80
2019-03-04T20:59:21.364Z,0.70
2019-03-04T21:02:07.389Z,0.60
2019-03-04T21:07:52.518Z,0.77
2019-03-04T21:10:42.338Z,0.40
2019-03-04T21:13:35.741Z,0.60
2019-03-04T21:16:16.617Z,0.80
2019-03-04T21:19:18.928Z,0.60
2019-03-04T21:22:01.196Z,0.40
2019-03-04T21:24:50.971Z,0.80
2019-03-04T21:27:34.522Z,0.80
2019-03-04T21:31:02.426Z,0.40
2019-03-04T21:34:03.874Z,0.87
2019-03-04T21:36:58.286Z,0.70
2019-03-04T21:39:41.894Z,0.83
2019-03-04T21:43:09.825Z,0.90
2019-03-04T21:46:26.936Z,0.90
2019-03-04T21:49:10.668Z,1.00
2019-03-04T21:52:25.633Z,1.20
2019-03-04T21:55:11.424Z,1.27
2019-03-04T22:01:11.335Z,1.03
2019-03-04T22:03:53.410Z,1.10
2019-03-04T22:06:43.418Z,1.00
2019-03-04T22:09:25.556Z,1.20
2019-03-04T22:12:15.556Z,0.83
2019-03-04T22:15:05.947Z,1.43
2019-03-04T22:20:57.340Z,0.93
2019-03-04T22:26:42.656Z,1.00
2019-03-04T22:29:32.457Z,1.00
2019-03-04T22:32:22.299Z,0.97
2019-03-04T22:38:27.096Z,0.90
2019-03-04T22:41:16.894Z,1.23
2019-03-04T22:44:06.951Z,0.83
2019-03-04T22:50:06.745Z,0.93
2019-03-04T22:52:48.923Z,1.00
2019-03-04T22:55:38.970Z,0.90
2019-03-04T22:58:28.636Z,1.40
2019-03-04T23:01:54.117Z,1.00
2019-03-04T23:05:07.940Z,1.17
2019-03-04T23:07:51.525Z,1.43
2019-03-04T23:11:02.168Z,1.40
2019-03-04T23:13:49.916Z,1.03
2019-03-04T23:16:39.689Z,0.90
2019-03-04T23:19:29.522Z,1.10
2019-03-04T23:22:19.267Z,1.50
2019-03-04T23:25:05.274Z,1.07
2019-03-04T23:27:54.581Z,1.30
2019-03-04T23:30:38.177Z,1.17
2019-03-04T23:33:28.202Z,1.20
2019-03-04T23:36:18.034Z,1.70
2019-03-04T23:42:25.555Z,1.43
2019-03-04T23:45:15.399Z,1.57
2019-03-04T23:47:58.126Z,1.47
2019-03-04T23:50:28.771Z,1.50
2019-03-04T23:53:18.966Z,1.63
2019-03-04T23:56:01.890Z,1.47
2019-03-04T23:58:51.771Z,1.40
